»·PEaware :: SWA1856 KLAS-KSNA

SWA1856 :: KLAS-KSNA

FLIGHT INFORMATION

Flight Status: Arrived
Operator:
Southwest Airlines
More flights by this operator :: More flights under this callsign
Pilot: Dave P. (45)
Aircraft: BOEING 737-700
(B737)
More flights by this aircraft type
Origin: KLAS McCarran Intl
United States
Destination: KSNA John Wayne-Orange Co
United States
More flights between these airports :: More routes between these airports
Route: +BOACH8 WHIGG FEYLA DSNEE3
File this flight plan on PilotEdge
Remarks: PBN / A1B1C1D1S1S2 DOF / 180416 REG / N737PM OPR / SWA PER / C RMK / TCAS SIMBRIEF
Altitude:
(Current/Filed)
26,000ft
Speed:
(Current/Filed)
454kts
Departed: 16-Apr-18 11:28 AM
Arrived: 16-Apr-18 12:14 PM
Distance/Time
Traveled:
196nm/0:45
Distance/Time
To Go:
Arrived

Flight Plot

Page will automatically refresh every two minutes.

Flight plan parsing failed; only flown route is shown


Map Options




Map Legend


Flown Route
Filed Route
Departure Airport
Arrival Airport
Navaid (VOR, NDB)
Fix

Horizontal Profiles

Position Reports

Time Latitude Longitude Heading Altitude Ground
Speed
16-Apr-18 10:48 36.079817 -115.147029 62 2189ft 0kts
16-Apr-18 10:49 36.079817 -115.147029 62 2189ft 0kts
16-Apr-18 10:50 36.079817 -115.147029 62 2189ft 0kts
16-Apr-18 10:51 36.079817 -115.147029 62 2189ft 0kts
16-Apr-18 10:52 36.079817 -115.147029 62 2189ft 0kts
16-Apr-18 10:53 36.079817 -115.147029 62 2189ft 0kts
16-Apr-18 10:54 36.079817 -115.147029 62 2189ft 0kts
16-Apr-18 10:55 36.079817 -115.147029 62 2189ft 0kts
16-Apr-18 10:56 36.079817 -115.147029 62 2189ft 0kts
16-Apr-18 10:57 36.079817 -115.147029 62 2189ft 0kts
16-Apr-18 10:58 36.079817 -115.147029 62 2189ft 0kts
16-Apr-18 10:59 36.079817 -115.147029 62 2189ft 0kts
16-Apr-18 11:00 36.079817 -115.147029 62 2189ft 0kts
16-Apr-18 11:01 36.079817 -115.147029 62 2189ft 0kts
16-Apr-18 11:02 36.079817 -115.147029 62 2189ft 0kts
16-Apr-18 11:03 36.079817 -115.147029 62 2189ft 0kts
16-Apr-18 11:04 36.079817 -115.147029 62 2189ft 0kts
16-Apr-18 11:05 36.079817 -115.147029 62 2189ft 0kts
16-Apr-18 11:06 36.079817 -115.147029 62 2189ft 0kts
16-Apr-18 11:07 36.079817 -115.147029 62 2189ft 0kts
16-Apr-18 11:08 36.079817 -115.147029 62 2189ft 0kts
16-Apr-18 11:09 36.079817 -115.147029 62 2189ft 0kts
16-Apr-18 11:10 36.079817 -115.147029 62 2189ft 0kts
16-Apr-18 11:11 36.079735 -115.147226 62 2189ft 2kts
16-Apr-18 11:12 36.079496 -115.147805 62 2189ft 0kts
16-Apr-18 11:13 36.079496 -115.147805 62 2189ft 0kts
16-Apr-18 11:14 36.079327 -115.147675 186 2189ft 0kts
16-Apr-18 11:15 36.079029 -115.147670 166 2189ft 0kts
16-Apr-18 11:16 36.079027 -115.147669 166 2189ft 0kts
16-Apr-18 11:17 36.079026 -115.147669 166 2189ft 0kts
16-Apr-18 11:18 36.079024 -115.147668 166 2189ft 0kts
16-Apr-18 11:19 36.078885 -115.147627 166 2189ft 5kts
16-Apr-18 11:20 36.078708 -115.151122 273 2189ft 8kts
16-Apr-18 11:21 36.081004 -115.154654 334 2189ft 19kts
16-Apr-18 11:22 36.085856 -115.157439 334 2189ft 22kts
16-Apr-18 11:23 36.090939 -115.155732 24 2189ft 18kts
16-Apr-18 11:24 36.095363 -115.153194 25 2189ft 22kts
16-Apr-18 11:25 36.098005 -115.152690 294 2189ft 5kts
16-Apr-18 11:26 36.098073 -115.152874 294 2189ft 2kts
16-Apr-18 11:27 36.092636 -115.156958 204 2189ft 96kts
16-Apr-18 11:28 36.056837 -115.177895 202 4079ft 156kts
16-Apr-18 11:29 36.010592 -115.213263 230 5910ft 233kts
16-Apr-18 11:30 35.973615 -115.286748 216 6981ft 257kts
16-Apr-18 11:31 35.904766 -115.310115 187 9808ft 260kts
16-Apr-18 11:32 35.828406 -115.312136 181 12604ft 310kts
16-Apr-18 11:33 35.739127 -115.301634 182 15958ft 330kts
16-Apr-18 11:34 35.657792 -115.335400 221 19331ft 323kts
16-Apr-18 11:35 35.590935 -115.412744 227 22281ft 337kts
16-Apr-18 11:36 35.526102 -115.499269 227 24802ft 350kts
16-Apr-18 11:37 35.459368 -115.589033 227 27082ft 359kts
16-Apr-18 11:38 35.392396 -115.679560 227 27878ft 356kts
16-Apr-18 11:39 35.325735 -115.769037 227 27893ft 354kts
16-Apr-18 11:40 35.259177 -115.858053 227 27908ft 355kts
16-Apr-18 11:41 35.191535 -115.946103 226 27920ft 356kts
16-Apr-18 11:42 35.122314 -116.033014 226 27930ft 354kts
16-Apr-18 11:43 35.053894 -116.119453 226 27933ft 354kts
16-Apr-18 11:44 34.985243 -116.205566 226 27941ft 355kts
16-Apr-18 11:45 34.916062 -116.292028 226 27943ft 355kts
16-Apr-18 11:46 34.847456 -116.378790 226 27942ft 356kts
16-Apr-18 11:47 34.779089 -116.465837 226 27952ft 356kts
16-Apr-18 11:48 34.711253 -116.551885 226 27951ft 346kts
16-Apr-18 11:49 34.639081 -116.628564 220 26545ft 343kts
16-Apr-18 11:50 34.565916 -116.699451 220 24254ft 330kts
16-Apr-18 11:51 34.495563 -116.768665 223 22028ft 319kts
16-Apr-18 11:52 34.432893 -116.842130 225 19868ft 309kts
16-Apr-18 11:53 34.371971 -116.913020 224 17760ft 299kts
16-Apr-18 11:54 34.312336 -116.981880 224 15603ft 292kts
16-Apr-18 11:55 34.251530 -117.044926 215 13838ft 287kts
16-Apr-18 11:56 34.182732 -117.094384 214 13120ft 289kts
16-Apr-18 11:57 34.110222 -117.135899 207 12671ft 289kts
16-Apr-18 11:58 34.036939 -117.174558 208 12264ft 286kts
16-Apr-18 11:59 33.974200 -117.227732 228 11517ft 263kts
16-Apr-18 12:00 33.929099 -117.290612 230 10505ft 240kts
16-Apr-18 12:01 33.885228 -117.352673 230 9502ft 245kts
16-Apr-18 12:02 33.841432 -117.414445 230 8519ft 232kts
16-Apr-18 12:03 33.808189 -117.477785 247 7797ft 225kts
16-Apr-18 12:04 33.799964 -117.550465 272 7591ft 209kts
16-Apr-18 12:05 33.815737 -117.610804 287 6925ft 184kts
16-Apr-18 12:06 33.834501 -117.668032 287 5353ft 184kts
16-Apr-18 12:07 33.848155 -117.725985 250 3827ft 180kts
16-Apr-18 12:08 33.819055 -117.773906 232 2997ft 178kts
16-Apr-18 12:09 33.777195 -117.804529 209 2138ft 171kts
16-Apr-18 12:10 33.738587 -117.828947 210 1305ft 138kts
16-Apr-18 12:11 33.705733 -117.849789 210 600ft 132kts
16-Apr-18 12:12 33.674192 -117.869783 208 64ft 91kts
16-Apr-18 12:13 33.669013 -117.871955 122 64ft 0kts
16-Apr-18 12:14 33.671390 -117.869058 37 64ft 21kts
16-Apr-18 12:15 33.675164 -117.865516 25 64ft 16kts
16-Apr-18 12:16 33.677729 -117.863590 121 64ft 8kts
16-Apr-18 12:17 33.677534 -117.863148 115 64ft 0kts
16-Apr-18 12:18 33.677534 -117.863148 115 64ft 0kts
16-Apr-18 12:19 33.677534 -117.863148 115 64ft 0kts
16-Apr-18 12:20 33.677534 -117.863148 115 64ft 0kts
16-Apr-18 12:21 33.677534 -117.863148 115 64ft 0kts
16-Apr-18 12:22 33.677534 -117.863148 115 64ft 0kts
16-Apr-18 12:23 33.677534 -117.863148 115 64ft 0kts
16-Apr-18 12:24 33.677534 -117.863148 115 64ft 0kts

Navigation Log

Ident Type
Flight plan parsing failed, navigation log unavailable